createdAt,value
2023-01-08T00:01:08.243Z,4.71
2023-01-08T00:03:36.334Z,4.76
2023-01-08T00:06:05.552Z,4.83
2023-01-08T00:08:33.253Z,3.77
2023-01-08T00:11:00.476Z,4.70
2023-01-08T00:13:28.315Z,4.83
2023-01-08T00:15:55.304Z,4.71
2023-01-08T00:18:22.536Z,4.40
2023-01-08T00:20:49.488Z,2.36
2023-01-08T00:23:19.330Z,4.04
2023-01-08T00:25:46.782Z,2.53
2023-01-08T00:28:15.175Z,3.02
2023-01-08T00:30:42.529Z,2.85
2023-01-08T00:33:10.431Z,3.99
2023-01-08T00:35:40.054Z,4.60
2023-01-08T00:38:07.389Z,3.36
2023-01-08T00:40:35.772Z,4.48
2023-01-08T00:43:03.375Z,4.75
2023-01-08T00:45:30.779Z,3.32
2023-01-08T00:47:58.214Z,4.93
2023-01-08T00:50:25.720Z,2.67
2023-01-08T00:52:52.574Z,1.57
2023-01-08T00:55:19.849Z,4.15
2023-01-08T00:57:46.989Z,4.91
2023-01-08T01:00:16.003Z,3.08
2023-01-08T01:02:43.430Z,0.60
2023-01-08T01:05:15.301Z,3.42
2023-01-08T01:07:43.754Z,4.32
2023-01-08T01:10:12.595Z,3.54
2023-01-08T01:12:40.400Z,4.65
2023-01-08T01:15:09.892Z,4.86
2023-01-08T01:17:39.170Z,3.47
2023-01-08T01:20:08.016Z,3.35
2023-01-08T01:22:35.439Z,2.97
2023-01-08T01:25:02.608Z,3.49
2023-01-08T01:27:29.319Z,3.29
2023-01-08T01:29:56.049Z,1.98
2023-01-08T01:32:22.883Z,2.96
2023-01-08T01:34:50.147Z,4.10
2023-01-08T01:37:17.260Z,2.28
2023-01-08T01:39:44.235Z,1.44
2023-01-08T01:42:36.164Z,1.95
2023-01-08T01:45:17.444Z,-0.17
2023-01-08T01:47:47.994Z,3.10
2023-01-08T01:50:20.308Z,4.43
2023-01-08T01:53:00.247Z,3.04
2023-01-08T01:55:27.938Z,3.29
2023-01-08T01:58:24.701Z,2.56
2023-01-08T02:00:53.239Z,0.66
2023-01-08T02:03:32.810Z,0.89
2023-01-08T02:06:24.543Z,2.99
2023-01-08T02:09:41.805Z,3.21
2023-01-08T02:12:18.174Z,4.37
2023-01-08T02:15:01.348Z,3.53
2023-01-08T02:17:34.372Z,3.10
2023-01-08T02:20:09.460Z,-0.25
2023-01-08T02:22:36.557Z,0.58
2023-01-08T02:25:41.542Z,1.22
2023-01-08T02:28:11.865Z,3.67
2023-01-08T02:30:38.891Z,3.99
2023-01-08T02:33:05.754Z,3.19
2023-01-08T02:36:10.027Z,3.94
2023-01-08T02:38:42.603Z,3.64
2023-01-08T02:41:12.783Z,4.33
2023-01-08T02:43:50.596Z,4.52
2023-01-08T02:46:23.365Z,3.65
2023-01-08T02:48:54.853Z,3.56
2023-01-08T02:51:40.953Z,3.52
2023-01-08T02:54:12.011Z,4.78
2023-01-08T02:56:46.784Z,3.55
2023-01-08T02:59:15.581Z,3.32
2023-01-08T03:01:43.862Z,2.12
2023-01-08T03:04:16.755Z,2.19
2023-01-08T03:06:44.996Z,2.48
2023-01-08T03:09:12.691Z,4.10
2023-01-08T03:11:46.770Z,4.73
2023-01-08T03:14:25.527Z,5.02
2023-01-08T03:16:59.004Z,5.53
2023-01-08T03:19:34.712Z,4.33
2023-01-08T03:22:03.548Z,4.49
2023-01-08T03:24:34.830Z,5.29
2023-01-08T03:27:06.127Z,4.47
2023-01-08T03:29:34.566Z,3.62
2023-01-08T03:32:06.472Z,0.65
2023-01-08T03:34:37.982Z,3.85
2023-01-08T03:37:08.015Z,4.22
2023-01-08T03:39:45.126Z,4.73
2023-01-08T03:42:15.311Z,3.01
2023-01-08T03:44:42.390Z,3.05
2023-01-08T03:47:11.367Z,3.11
2023-01-08T03:49:40.320Z,3.97
2023-01-08T03:52:07.428Z,4.12
2023-01-08T03:54:36.479Z,4.41
2023-01-08T03:57:03.529Z,4.56
2023-01-08T03:59:30.580Z,4.26
2023-01-08T04:01:57.342Z,3.27
2023-01-08T04:04:24.186Z,1.20
2023-01-08T04:06:53.130Z,2.92
2023-01-08T04:09:20.207Z,1.19
2023-01-08T04:11:46.869Z,3.97
2023-01-08T04:14:13.866Z,1.32
2023-01-08T04:16:41.004Z,-0.11
2023-01-08T04:19:07.888Z,1.15
2023-01-08T04:21:34.618Z,2.79
2023-01-08T04:24:01.363Z,3.37
2023-01-08T04:26:28.084Z,1.90
2023-01-08T04:28:54.832Z,-0.96
2023-01-08T04:31:21.979Z,-0.59
2023-01-08T04:33:49.242Z,0.42
2023-01-08T04:36:16.030Z,-0.54
2023-01-08T04:38:42.750Z,2.05
2023-01-08T04:41:09.414Z,1.85
2023-01-08T04:43:36.829Z,2.99
2023-01-08T04:46:07.800Z,4.12
2023-01-08T04:48:35.017Z,3.43
2023-01-08T04:51:03.860Z,2.41
2023-01-08T04:53:33.827Z,3.00
2023-01-08T04:56:08.790Z,0.66
2023-01-08T04:58:36.927Z,2.02
2023-01-08T05:01:16.081Z,2.96
2023-01-08T05:03:42.815Z,0.19
2023-01-08T05:06:09.925Z,0.87
2023-01-08T05:08:37.123Z,1.06
2023-01-08T05:11:04.430Z,1.94
2023-01-08T05:13:31.494Z,1.96
2023-01-08T05:16:01.766Z,1.50
2023-01-08T05:18:30.137Z,0.97
2023-01-08T05:21:02.178Z,0.36
2023-01-08T05:23:30.168Z,2.87
2023-01-08T05:26:01.368Z,3.96
2023-01-08T05:28:28.838Z,4.26
2023-01-08T05:30:55.873Z,3.07
2023-01-08T05:33:23.585Z,2.76
2023-01-08T05:35:51.180Z,4.55
2023-01-08T05:38:19.405Z,2.60
2023-01-08T05:40:46.444Z,3.16
2023-01-08T05:43:13.135Z,3.99
2023-01-08T05:45:39.937Z,0.12
2023-01-08T05:48:07.861Z,1.65
2023-01-08T05:50:36.160Z,3.96
2023-01-08T05:53:07.648Z,3.78
2023-01-08T05:55:35.462Z,4.23
2023-01-08T05:58:03.547Z,4.56
2023-01-08T06:00:31.620Z,4.04
2023-01-08T06:02:58.492Z,2.31
2023-01-08T06:05:25.633Z,1.15
2023-01-08T06:07:52.830Z,3.21
2023-01-08T06:10:19.632Z,3.73
2023-01-08T06:12:47.358Z,4.66
2023-01-08T06:15:14.096Z,4.45
2023-01-08T06:17:41.139Z,3.91
2023-01-08T06:20:08.884Z,3.48
2023-01-08T06:22:35.816Z,0.56
2023-01-08T06:25:03.416Z,4.06
2023-01-08T06:27:30.280Z,3.08
2023-01-08T06:29:57.394Z,3.50
2023-01-08T06:32:24.252Z,4.35
2023-01-08T06:34:50.987Z,3.03
2023-01-08T06:37:18.498Z,3.48
2023-01-08T06:39:45.197Z,2.74
2023-01-08T06:42:12.270Z,4.55
2023-01-08T06:44:39.112Z,3.67
2023-01-08T06:47:05.869Z,5.47
2023-01-08T06:49:32.540Z,3.78
2023-01-08T06:51:59.273Z,2.45
2023-01-08T06:54:26.056Z,2.68
2023-01-08T06:56:54.386Z,1.83
2023-01-08T06:59:21.994Z,2.60
2023-01-08T07:01:49.353Z,4.40
2023-01-08T07:04:17.448Z,4.71
2023-01-08T07:06:44.215Z,6.14
2023-01-08T07:09:15.531Z,2.89
2023-01-08T07:11:42.742Z,4.72
2023-01-08T07:14:09.753Z,3.40
2023-01-08T07:16:37.049Z,4.89
2023-01-08T07:19:03.941Z,3.79
2023-01-08T07:21:31.522Z,4.81
2023-01-08T07:23:59.640Z,5.87
2023-01-08T07:26:26.521Z,5.56
2023-01-08T07:28:53.969Z,5.10
2023-01-08T07:31:20.788Z,4.12
2023-01-08T07:33:47.919Z,2.39
2023-01-08T07:36:15.700Z,3.09
2023-01-08T07:38:42.999Z,4.40
2023-01-08T07:41:09.874Z,4.38
2023-01-08T07:43:36.723Z,5.87
2023-01-08T07:46:04.522Z,6.23
2023-01-08T07:48:32.690Z,6.49
2023-01-08T07:51:04.074Z,6.76
2023-01-08T07:53:30.923Z,7.25
2023-01-08T07:56:05.653Z,7.58
2023-01-08T07:58:33.019Z,7.43
2023-01-08T08:01:00.589Z,6.99
2023-01-08T08:03:27.576Z,5.42
2023-01-08T08:05:54.652Z,6.81
2023-01-08T08:08:21.525Z,6.13
2023-01-08T08:10:48.221Z,3.98
2023-01-08T08:13:15.002Z,5.47
2023-01-08T08:15:41.821Z,5.67
2023-01-08T08:18:10.055Z,7.17
2023-01-08T08:20:37.724Z,7.73
2023-01-08T08:23:07.729Z,6.92
2023-01-08T08:25:35.316Z,7.45
2023-01-08T08:28:03.163Z,7.48
2023-01-08T08:30:32.104Z,3.74
2023-01-08T08:33:01.573Z,4.76
2023-01-08T08:35:29.347Z,7.26
2023-01-08T08:37:57.049Z,5.80
2023-01-08T08:40:25.195Z,2.56
2023-01-08T08:42:59.882Z,3.98
2023-01-08T08:45:27.627Z,5.99
2023-01-08T08:47:54.707Z,5.09
2023-01-08T08:50:22.234Z,7.39
2023-01-08T08:52:49.212Z,5.57
2023-01-08T08:55:17.424Z,6.53
2023-01-08T08:57:45.590Z,6.03
2023-01-08T09:00:13.753Z,7.24
2023-01-08T09:02:41.054Z,6.03
2023-01-08T09:05:08.264Z,5.96
2023-01-08T09:07:35.767Z,6.40
2023-01-08T09:10:03.565Z,9.07
2023-01-08T09:12:30.389Z,5.82
2023-01-08T09:14:57.345Z,8.62
2023-01-08T09:17:25.968Z,8.92
2023-01-08T09:19:53.282Z,8.28
2023-01-08T09:22:20.159Z,5.83
2023-01-08T09:24:46.917Z,9.47
2023-01-08T09:27:14.835Z,8.92
2023-01-08T09:29:41.662Z,9.20
2023-01-08T09:32:09.875Z,7.52
2023-01-08T09:34:36.673Z,9.98
2023-01-08T09:37:04.340Z,8.01
2023-01-08T09:39:32.487Z,9.56
2023-01-08T09:42:02.710Z,10.74
2023-01-08T09:44:36.116Z,11.26
2023-01-08T09:47:03.704Z,9.96
2023-01-08T09:49:42.542Z,9.57
2023-01-08T09:52:13.711Z,11.30
2023-01-08T09:54:41.257Z,10.53
2023-01-08T09:57:17.900Z,8.68
2023-01-08T09:59:48.033Z,10.08
2023-01-08T10:02:24.230Z,10.03
2023-01-08T10:04:57.611Z,9.86
2023-01-08T10:07:26.581Z,10.57
2023-01-08T10:09:55.139Z,8.87
2023-01-08T10:12:30.512Z,8.08
2023-01-08T10:15:01.798Z,10.54
2023-01-08T10:17:37.407Z,12.19
2023-01-08T10:20:22.747Z,13.82
2023-01-08T10:22:54.314Z,13.83
2023-01-08T10:25:24.244Z,15.30
2023-01-08T10:27:54.906Z,9.97
2023-01-08T10:30:36.445Z,15.78
2023-01-08T10:33:12.858Z,16.66
2023-01-08T10:35:42.466Z,16.69
2023-01-08T10:39:00.805Z,15.56
2023-01-08T10:41:28.381Z,12.80
2023-01-08T10:44:00.667Z,11.90
2023-01-08T10:46:43.447Z,13.85
2023-01-08T10:49:41.982Z,14.62
2023-01-08T10:52:33.678Z,12.71
2023-01-08T10:55:23.139Z,14.56
2023-01-08T10:58:03.515Z,15.45
2023-01-08T11:00:35.683Z,15.29
2023-01-08T11:03:28.864Z,15.11
2023-01-08T11:05:55.772Z,12.95
2023-01-08T11:08:23.449Z,12.19
2023-01-08T11:11:01.720Z,11.20
2023-01-08T11:13:30.128Z,11.65
2023-01-08T11:16:06.801Z,9.59
2023-01-08T11:18:52.030Z,12.10
2023-01-08T11:21:20.659Z,12.72
2023-01-08T11:23:48.672Z,12.09
2023-01-08T11:26:21.854Z,12.19
2023-01-08T11:29:27.247Z,11.66
2023-01-08T11:32:07.726Z,11.85
2023-01-08T11:34:54.689Z,12.18
2023-01-08T11:37:26.368Z,12.58
2023-01-08T11:39:54.765Z,11.55
2023-01-08T11:42:27.542Z,11.77
2023-01-08T11:45:38.720Z,11.89
2023-01-08T11:48:23.838Z,10.02
2023-01-08T11:50:56.084Z,8.37
2023-01-08T11:53:42.820Z,10.29
2023-01-08T11:56:20.971Z,11.90
2023-01-08T11:59:11.517Z,13.00
2023-01-08T12:02:04.586Z,14.42
2023-01-08T12:04:43.882Z,12.77
2023-01-08T12:07:29.164Z,12.58
2023-01-08T12:10:01.405Z,12.52
2023-01-08T12:12:56.384Z,14.03
2023-01-08T12:15:43.044Z,13.34
2023-01-08T12:18:51.763Z,13.40
2023-01-08T12:21:56.643Z,12.90
2023-01-08T12:24:45.888Z,12.36
2023-01-08T12:27:54.514Z,13.63
2023-01-08T12:30:20.686Z,11.33
2023-01-08T12:33:01.825Z,12.80
2023-01-08T12:35:36.499Z,11.06
2023-01-08T12:38:11.558Z,12.08
2023-01-08T12:40:46.733Z,12.42
2023-01-08T12:43:28.925Z,12.54
2023-01-08T12:45:59.779Z,11.29
2023-01-08T12:48:33.349Z,12.49
2023-01-08T12:51:04.722Z,11.53
2023-01-08T12:53:56.611Z,11.72
2023-01-08T12:56:47.454Z,12.97
2023-01-08T12:59:29.711Z,11.69
2023-01-08T13:02:27.869Z,12.23
2023-01-08T13:04:54.763Z,12.00
2023-01-08T13:07:27.960Z,10.65
2023-01-08T13:10:03.083Z,8.58
2023-01-08T13:12:41.129Z,10.32
2023-01-08T13:15:08.746Z,9.92
2023-01-08T13:17:37.921Z,11.40
2023-01-08T13:20:06.987Z,11.09
2023-01-08T13:22:36.956Z,9.89
2023-01-08T13:25:15.672Z,11.22
2023-01-08T13:27:43.400Z,12.21
2023-01-08T13:30:40.791Z,8.35
2023-01-08T13:33:44.123Z,10.40
2023-01-08T13:36:14.025Z,10.06
2023-01-08T13:38:42.052Z,8.05
2023-01-08T13:41:31.534Z,8.95
2023-01-08T13:44:02.089Z,10.01
2023-01-08T13:46:29.549Z,10.70
2023-01-08T13:49:06.860Z,10.27
2023-01-08T13:51:44.035Z,11.95
2023-01-08T13:54:16.744Z,11.84
2023-01-08T13:56:46.745Z,12.09
2023-01-08T13:59:25.680Z,12.23
2023-01-08T14:01:54.139Z,11.94
2023-01-08T14:04:23.136Z,9.19
2023-01-08T14:06:50.265Z,8.83
2023-01-08T14:09:26.221Z,10.54
2023-01-08T14:11:57.855Z,10.55
2023-01-08T14:14:26.827Z,12.72
2023-01-08T14:16:56.040Z,11.42
2023-01-08T14:19:25.429Z,11.41
2023-01-08T14:21:55.167Z,11.03
2023-01-08T14:24:25.006Z,11.24
2023-01-08T14:27:00.779Z,11.77
2023-01-08T14:29:30.857Z,10.85
2023-01-08T14:32:00.392Z,11.84
2023-01-08T14:34:30.978Z,10.22
2023-01-08T14:36:58.428Z,11.49
2023-01-08T14:39:36.516Z,10.31
2023-01-08T14:42:44.149Z,11.14
2023-01-08T14:45:21.439Z,11.39
2023-01-08T14:47:51.120Z,11.62
2023-01-08T14:50:23.975Z,12.05
2023-01-08T14:52:53.463Z,11.62
2023-01-08T14:55:22.374Z,8.46
2023-01-08T14:57:53.529Z,9.66
2023-01-08T15:00:29.468Z,9.11
2023-01-08T15:02:56.803Z,11.65
2023-01-08T15:05:32.397Z,10.89
2023-01-08T15:08:22.436Z,9.39
2023-01-08T15:11:20.877Z,11.43
2023-01-08T15:13:49.782Z,10.65
2023-01-08T15:16:29.051Z,11.74
2023-01-08T15:19:10.852Z,10.47
2023-01-08T15:21:38.777Z,11.23
2023-01-08T15:24:07.601Z,11.28
2023-01-08T15:26:34.612Z,10.96
2023-01-08T15:29:07.646Z,10.00
2023-01-08T15:31:40.451Z,11.59
2023-01-08T15:34:08.832Z,11.44
2023-01-08T15:36:35.648Z,10.50
2023-01-08T15:39:03.610Z,10.77
2023-01-08T15:41:53.662Z,11.28
2023-01-08T15:44:20.683Z,11.18
2023-01-08T15:46:47.696Z,10.55
2023-01-08T15:49:14.629Z,11.25
2023-01-08T15:51:58.464Z,12.17
2023-01-08T15:54:26.037Z,12.58
2023-01-08T15:56:52.856Z,8.98
2023-01-08T15:59:19.537Z,9.24
2023-01-08T16:01:46.288Z,9.06
2023-01-08T16:04:13.607Z,8.77
2023-01-08T16:06:42.289Z,9.84
2023-01-08T16:09:09.350Z,8.88
2023-01-08T16:11:36.131Z,10.19
2023-01-08T16:14:02.995Z,9.96
2023-01-08T16:16:29.970Z,10.14
2023-01-08T16:18:58.676Z,10.24
2023-01-08T16:21:25.428Z,9.00
2023-01-08T16:23:53.037Z,8.32
2023-01-08T16:26:19.783Z,8.87
2023-01-08T16:28:46.506Z,8.56
2023-01-08T16:31:13.851Z,8.51
2023-01-08T16:33:40.651Z,8.76
2023-01-08T16:36:08.585Z,7.71
2023-01-08T16:38:36.418Z,9.02
2023-01-08T16:41:05.341Z,8.14
2023-01-08T16:43:40.216Z,9.11
2023-01-08T16:46:12.714Z,9.36
2023-01-08T16:48:40.773Z,9.76
2023-01-08T16:51:08.245Z,9.37
2023-01-08T16:53:36.646Z,8.69
2023-01-08T16:56:04.571Z,10.08
2023-01-08T16:58:31.824Z,8.28
2023-01-08T17:00:59.455Z,8.20
2023-01-08T17:03:26.283Z,8.25
2023-01-08T17:05:53.511Z,7.89
2023-01-08T17:08:20.673Z,6.98
2023-01-08T17:10:47.456Z,7.02
2023-01-08T17:13:14.412Z,6.00
2023-01-08T17:15:41.166Z,7.14
2023-01-08T17:18:08.465Z,6.55
2023-01-08T17:20:35.735Z,6.54
2023-01-08T17:23:02.561Z,6.36
2023-01-08T17:25:29.650Z,6.23
2023-01-08T17:27:56.341Z,7.09
2023-01-08T17:30:23.656Z,7.51
2023-01-08T17:32:50.489Z,7.21
2023-01-08T17:35:17.262Z,8.14
2023-01-08T17:37:44.595Z,9.00
2023-01-08T17:40:11.918Z,8.26
2023-01-08T17:42:39.750Z,7.37
2023-01-08T17:45:08.473Z,7.87
2023-01-08T17:47:37.352Z,8.55
2023-01-08T17:50:05.772Z,7.45
2023-01-08T17:52:32.630Z,8.54
2023-01-08T17:54:59.663Z,6.91
2023-01-08T17:57:26.609Z,7.57
2023-01-08T17:59:54.026Z,7.59
2023-01-08T18:02:20.966Z,8.00
2023-01-08T18:04:48.853Z,8.22
2023-01-08T18:07:16.625Z,7.80
2023-01-08T18:09:44.832Z,7.09
2023-01-08T18:12:11.866Z,6.48
2023-01-08T18:14:39.927Z,7.91
2023-01-08T18:17:06.647Z,8.18
2023-01-08T18:19:33.625Z,7.24
2023-01-08T18:22:01.250Z,8.82
2023-01-08T18:24:28.872Z,8.80
2023-01-08T18:26:55.767Z,7.60
2023-01-08T18:29:22.784Z,7.80
2023-01-08T18:31:49.671Z,8.32
2023-01-08T18:34:16.790Z,7.06
2023-01-08T18:36:43.872Z,7.12
2023-01-08T18:39:12.427Z,7.26
2023-01-08T18:41:57.788Z,8.52
2023-01-08T18:44:25.235Z,7.80
2023-01-08T18:46:52.061Z,6.23
2023-01-08T18:49:20.215Z,6.79
2023-01-08T18:51:47.227Z,8.80
2023-01-08T18:54:14.462Z,6.61
2023-01-08T18:56:41.448Z,7.76
2023-01-08T18:59:09.556Z,8.27
2023-01-08T19:01:36.563Z,7.69
2023-01-08T19:04:03.581Z,6.84
2023-01-08T19:06:30.882Z,8.65
2023-01-08T19:08:59.250Z,7.78
2023-01-08T19:11:26.358Z,8.17
2023-01-08T19:13:55.758Z,8.87
2023-01-08T19:16:22.771Z,9.98
2023-01-08T19:18:50.413Z,6.61
2023-01-08T19:21:19.353Z,8.44
2023-01-08T19:23:47.660Z,7.57
2023-01-08T19:26:15.895Z,7.85
2023-01-08T19:28:43.299Z,6.76
2023-01-08T19:31:15.707Z,8.59
2023-01-08T19:33:43.417Z,9.78
2023-01-08T19:36:15.972Z,9.59
2023-01-08T19:38:44.533Z,8.75
2023-01-08T19:41:30.769Z,8.65
2023-01-08T19:43:59.306Z,9.12
2023-01-08T19:46:26.493Z,7.73
2023-01-08T19:48:57.114Z,6.96
2023-01-08T19:51:25.059Z,6.33
2023-01-08T19:53:52.874Z,9.35
2023-01-08T19:56:20.245Z,8.19
2023-01-08T19:58:47.517Z,5.60
2023-01-08T20:01:23.206Z,8.39
2023-01-08T20:03:51.147Z,7.92
2023-01-08T20:06:21.004Z,7.20
2023-01-08T20:08:49.147Z,8.91
2023-01-08T20:11:17.326Z,8.80
2023-01-08T20:13:44.843Z,9.51
2023-01-08T20:16:14.966Z,8.41
2023-01-08T20:18:42.301Z,7.06
2023-01-08T20:21:17.749Z,7.90
2023-01-08T20:23:46.161Z,8.10
2023-01-08T20:26:16.741Z,7.13
2023-01-08T20:28:45.340Z,9.57
2023-01-08T20:31:18.042Z,9.97
2023-01-08T20:33:46.350Z,9.75
2023-01-08T20:36:16.651Z,10.05
2023-01-08T20:38:44.931Z,9.71
2023-01-08T20:41:12.590Z,9.34
2023-01-08T20:43:41.229Z,8.31
2023-01-08T20:46:13.794Z,9.69
2023-01-08T20:48:47.683Z,9.65
2023-01-08T20:51:16.327Z,8.13
2023-01-08T20:53:43.136Z,8.74
2023-01-08T20:56:15.401Z,9.03
2023-01-08T20:58:47.677Z,10.86
2023-01-08T21:01:18.950Z,9.88
2023-01-08T21:03:46.892Z,8.08
2023-01-08T21:06:18.537Z,9.08
2023-01-08T21:08:48.202Z,8.65
2023-01-08T21:11:15.546Z,9.13
2023-01-08T21:13:43.085Z,9.25
2023-01-08T21:16:14.242Z,9.07
2023-01-08T21:18:48.677Z,10.73
2023-01-08T21:21:32.008Z,9.36
2023-01-08T21:24:00.671Z,8.17
2023-01-08T21:26:27.416Z,7.93
2023-01-08T21:28:54.673Z,10.29
2023-01-08T21:31:26.633Z,11.17
2023-01-08T21:33:56.721Z,11.80
2023-01-08T21:36:26.121Z,9.90
2023-01-08T21:38:53.921Z,8.75
2023-01-08T21:41:41.107Z,9.77
2023-01-08T21:44:32.787Z,10.37
2023-01-08T21:47:02.491Z,8.98
2023-01-08T21:49:29.428Z,9.47
2023-01-08T21:52:15.843Z,8.62
2023-01-08T21:54:42.703Z,7.31
2023-01-08T21:57:10.083Z,9.43
2023-01-08T21:59:37.063Z,8.98
2023-01-08T22:02:05.032Z,9.77
2023-01-08T22:04:32.514Z,8.64
2023-01-08T22:06:59.305Z,9.45
2023-01-08T22:09:27.019Z,7.44
2023-01-08T22:11:55.068Z,8.25
2023-01-08T22:14:22.198Z,7.88
2023-01-08T22:16:48.987Z,9.05
2023-01-08T22:19:16.153Z,9.47
2023-01-08T22:21:43.016Z,8.25
2023-01-08T22:24:09.963Z,6.21
2023-01-08T22:26:36.840Z,7.76
2023-01-08T22:29:06.032Z,4.91
2023-01-08T22:31:33.891Z,8.22
2023-01-08T22:34:01.193Z,8.50
2023-01-08T22:36:28.114Z,6.00
2023-01-08T22:38:54.944Z,7.33
2023-01-08T22:41:24.085Z,7.92
2023-01-08T22:43:56.683Z,8.16
2023-01-08T22:46:24.629Z,9.45
2023-01-08T22:48:51.600Z,10.62
2023-01-08T22:51:27.270Z,9.98
2023-01-08T22:53:58.743Z,10.33
2023-01-08T22:56:26.708Z,10.92
2023-01-08T22:58:54.063Z,10.13
2023-01-08T23:01:27.369Z,11.11
2023-01-08T23:03:56.977Z,11.78
2023-01-08T23:06:25.527Z,11.23
2023-01-08T23:08:52.923Z,7.23
2023-01-08T23:11:21.206Z,6.08
2023-01-08T23:13:48.893Z,6.66
2023-01-08T23:16:17.920Z,6.25
2023-01-08T23:18:44.865Z,7.27
2023-01-08T23:21:17.841Z,8.79
2023-01-08T23:23:45.411Z,5.82
2023-01-08T23:26:24.967Z,7.40
2023-01-08T23:28:53.470Z,7.16
2023-01-08T23:31:26.861Z,7.83
2023-01-08T23:33:54.035Z,6.19
2023-01-08T23:36:21.996Z,5.97
2023-01-08T23:38:53.238Z,7.07
2023-01-08T23:41:23.231Z,6.03
2023-01-08T23:43:50.336Z,7.60
2023-01-08T23:46:18.082Z,9.65
2023-01-08T23:48:45.467Z,10.00
2023-01-08T23:51:12.896Z,9.53
2023-01-08T23:53:39.709Z,9.67
2023-01-08T23:56:07.557Z,9.43
2023-01-08T23:58:35.139Z,10.88
